Time;durP1;ratioP1;P1;durP2;ratioP2;P2;SDS_P1;SDS_P2;PMS_P1;PMS_P2;Temp;Humidity;BMP_temperature;BMP_pressure;BME280_temperature;BME280_humidity;BME280_pressure;Samples;Min_cycle;Max_cycle;Signal;HPM_P1;HPM_P2
2022/11/04 00:01:29;;;;;;;12.83;8.17;;;12.70;84.70;;;;;;5027875;28;20880;-74
2022/11/04 00:03:57;;;;;;;12.20;8.23;;;12.70;84.50;;;;;;5028906;28;20545;-74
2022/11/04 00:06:26;;;;;;;10.70;6.80;;;12.70;84.50;;;;;;5028057;28;20447;-75
2022/11/04 00:08:56;;;;;;;14.20;7.87;;;12.70;84.60;;;;;;5027584;28;20514;-74
2022/11/04 00:14:12;;;;;;;15.13;6.90;;;12.70;84.50;;;;;;5027652;28;21273;-74
2022/11/04 00:19:25;;;;;;;9.87;6.90;;;12.70;84.60;;;;;;5030964;28;20487;-75
2022/11/04 00:30:17;;;;;;;9.00;5.43;;;12.60;84.60;;;;;;5035027;28;20449;-75
2022/11/04 00:35:31;;;;;;;9.33;5.30;;;12.70;84.70;;;;;;5030401;28;20526;-75
2022/11/04 00:37:59;;;;;;;11.83;6.50;;;12.60;84.70;;;;;;5036805;28;20510;-75
2022/11/04 00:40:28;;;;;;;10.33;5.73;;;12.70;84.60;;;;;;5029434;28;20457;-74
2022/11/04 00:42:56;;;;;;;10.50;6.27;;;12.70;84.60;;;;;;5031559;28;20997;-74
2022/11/04 00:45:24;;;;;;;10.70;6.27;;;12.60;84.70;;;;;;5028408;28;21252;-75
2022/11/04 00:47:52;;;;;;;9.20;5.80;;;12.60;84.70;;;;;;5029564;28;20548;-74
2022/11/04 00:50:20;;;;;;;9.40;5.70;;;12.60;84.70;;;;;;5030985;28;20451;-74
2022/11/04 00:52:48;;;;;;;9.73;5.77;;;12.60;84.60;;;;;;5024091;28;20876;-73
2022/11/04 00:55:16;;;;;;;9.20;5.40;;;12.60;84.60;;;;;;5031269;28;20498;-74
2022/11/04 00:57:45;;;;;;;8.50;5.00;;;12.60;84.60;;;;;;5035212;28;20480;-76
2022/11/04 01:00:15;;;;;;;10.67;5.47;;;12.60;84.50;;;;;;5028316;28;21176;-75
2022/11/04 01:02:43;;;;;;;7.87;5.10;;;12.60;84.50;;;;;;5024160;28;20574;-75
2022/11/04 01:05:11;;;;;;;7.50;4.63;;;12.60;84.60;;;;;;5025540;28;20480;-74
2022/11/04 01:07:39;;;;;;;8.73;4.63;;;12.60;84.60;;;;;;5026727;28;20481;-75
2022/11/04 01:10:11;;;;;;;10.10;4.57;;;12.60;84.50;;;;;;5027465;28;20455;-74
2022/11/04 01:12:39;;;;;;;6.73;4.40;;;12.60;84.40;;;;;;5025843;28;20459;-75
2022/11/04 01:15:09;;;;;;;7.07;4.10;;;12.60;84.50;;;;;;5028877;28;20481;-74
2022/11/04 01:17:37;;;;;;;6.47;3.80;;;12.60;84.50;;;;;;5016277;28;20535;-75
2022/11/04 01:20:05;;;;;;;6.07;3.40;;;12.60;84.60;;;;;;5024587;28;20887;-74
2022/11/04 01:22:33;;;;;;;7.27;3.73;;;12.60;84.50;;;;;;5023404;28;20499;-75
2022/11/04 01:25:01;;;;;;;5.87;3.40;;;12.60;84.50;;;;;;5026794;28;20530;-75
2022/11/04 01:27:29;;;;;;;7.93;3.40;;;12.60;84.60;;;;;;5027959;28;20459;-75
2022/11/04 01:29:57;;;;;;;6.77;3.33;;;12.60;84.50;;;;;;5024089;28;20952;-74
2022/11/04 01:32:28;;;;;;;6.00;3.17;;;12.60;84.50;;;;;;5027636;28;20528;-75
2022/11/04 01:34:56;;;;;;;5.57;3.03;;;12.60;84.50;;;;;;5022280;28;21051;-75
2022/11/04 01:37:23;;;;;;;5.80;3.00;;;12.60;84.40;;;;;;5026580;28;20911;-74
2022/11/04 01:39:51;;;;;;;4.93;2.90;;;12.60;84.50;;;;;;5024846;28;20514;-75
2022/11/04 01:42:21;;;;;;;5.47;2.70;;;12.60;84.40;;;;;;5025079;28;20710;-75
2022/11/04 01:44:52;;;;;;;5.63;3.23;;;12.60;84.50;;;;;;5026304;28;20499;-75
2022/11/04 01:47:25;;;;;;;6.83;2.80;;;12.60;84.50;;;;;;5025906;28;20463;-75
2022/11/04 01:49:57;;;;;;;5.53;2.67;;;12.60;84.40;;;;;;5022933;28;20536;-73
2022/11/04 01:52:30;;;;;;;6.87;2.83;;;12.60;84.40;;;;;;5031628;28;20456;-75
2022/11/04 01:55:03;;;;;;;4.67;2.37;;;12.60;84.30;;;;;;5021180;28;20476;-72
2022/11/04 01:57:36;;;;;;;5.10;2.43;;;12.60;84.30;;;;;;5023308;28;21020;-74
2022/11/04 02:00:07;;;;;;;6.33;2.50;;;12.60;84.20;;;;;;5027741;28;20444;-76
2022/11/04 02:02:50;;;;;;;8.13;2.27;;;12.60;84.20;;;;;;5024526;28;21378;-74
2022/11/04 02:05:20;;;;;;;4.30;1.97;;;12.60;84.20;;;;;;5023464;28;20506;-75
2022/11/04 02:07:51;;;;;;;4.13;1.73;;;12.60;84.10;;;;;;5024723;28;20811;-73
2022/11/04 02:10:22;;;;;;;4.03;1.93;;;12.60;84.10;;;;;;5028996;28;20550;-73
2022/11/04 02:12:49;;;;;;;4.50;1.80;;;12.60;84.10;;;;;;5031905;28;20517;-76
2022/11/04 02:15:22;;;;;;;3.80;1.50;;;12.60;84.20;;;;;;5023092;28;20537;-76
2022/11/04 02:18:17;;;;;;;5.70;2.10;;;12.60;84.20;;;;;;5026201;28;20523;-73
2022/11/04 02:21:35;;;;;;;4.13;1.57;;;12.60;84.10;;;;;;5022462;28;20514;-74
2022/11/04 02:24:28;;;;;;;7.40;2.10;;;12.60;84.10;;;;;;5025772;28;20480;-74
2022/11/04 02:27:18;;;;;;;4.07;1.83;;;12.60;84.20;;;;;;5026585;28;20471;-75
2022/11/04 02:30:05;;;;;;;3.87;1.70;;;12.60;84.20;;;;;;5023753;28;20457;-76
2022/11/04 02:32:55;;;;;;;4.40;1.63;;;12.60;84.10;;;;;;5027000;28;20471;-73
2022/11/04 02:35:31;;;;;;;3.93;1.83;;;12.60;83.90;;;;;;5021662;28;20472;-74
2022/11/04 02:38:08;;;;;;;5.00;1.77;;;12.60;83.90;;;;;;5026016;28;20460;-73
2022/11/04 02:40:42;;;;;;;4.47;1.77;;;12.60;84.00;;;;;;5024757;28;20493;-76
2022/11/04 02:43:16;;;;;;;3.60;1.50;;;12.60;84.00;;;;;;5023500;28;20467;-76
2022/11/04 02:45:47;;;;;;;5.73;1.20;;;12.60;83.90;;;;;;5024733;28;20538;-75
2022/11/04 02:48:24;;;;;;;3.57;1.50;;;12.60;83.90;;;;;;5024101;28;20443;-74
2022/11/04 02:50:56;;;;;;;4.10;1.70;;;12.60;83.80;;;;;;5028974;28;20475;-73
2022/11/04 02:53:29;;;;;;;3.87;1.67;;;12.60;83.80;;;;;;5023056;28;20456;-73
2022/11/04 02:55:59;;;;;;;3.40;1.40;;;12.60;83.80;;;;;;5022623;28;20525;-72
2022/11/04 02:58:33;;;;;;;7.13;1.47;;;12.60;83.80;;;;;;5032768;28;20488;-75
2022/11/04 03:01:04;;;;;;;5.23;1.93;;;12.60;83.80;;;;;;5027566;28;20460;-76
2022/11/04 03:03:37;;;;;;;3.80;1.30;;;12.60;83.70;;;;;;5023008;28;20455;-74
2022/11/04 03:06:08;;;;;;;5.40;1.40;;;12.60;83.70;;;;;;5019256;28;20451;-75
2022/11/04 03:08:40;;;;;;;4.80;1.63;;;12.60;83.80;;;;;;5029368;28;20969;-74
2022/11/04 03:11:13;;;;;;;4.50;1.33;;;12.60;83.70;;;;;;5029690;28;20444;-74
2022/11/04 03:13:44;;;;;;;4.53;1.70;;;12.60;83.60;;;;;;5027669;28;20581;-73
2022/11/04 03:16:17;;;;;;;4.10;1.70;;;12.60;83.60;;;;;;5028495;28;20484;-73
2022/11/04 03:18:54;;;;;;;4.30;1.60;;;12.60;83.50;;;;;;5026911;28;20487;-74
2022/11/04 03:21:24;;;;;;;4.17;1.43;;;12.60;83.60;;;;;;5031425;28;20460;-73
2022/11/04 03:23:53;;;;;;;4.47;1.33;;;12.60;83.60;;;;;;5026575;28;20598;-73
2022/11/04 03:26:28;;;;;;;4.60;1.90;;;12.60;83.50;;;;;;5030204;28;20950;-74
2022/11/04 03:29:11;;;;;;;4.07;1.50;;;12.60;83.60;;;;;;5028378;28;20447;-76
2022/11/04 03:31:45;;;;;;;3.73;1.50;;;12.60;83.60;;;;;;5023321;28;20494;-75
2022/11/04 03:34:13;;;;;;;3.47;1.17;;;12.60;83.50;;;;;;5026375;28;20479;-74
2022/11/04 03:36:41;;;;;;;3.97;1.73;;;12.50;83.50;;;;;;5027815;28;20458;-74
2022/11/04 03:39:09;;;;;;;5.73;1.67;;;12.50;83.50;;;;;;5034600;28;20475;-74
2022/11/04 03:41:44;;;;;;;4.60;1.77;;;12.50;83.40;;;;;;5025223;28;20466;-74
2022/11/04 03:44:12;;;;;;;4.47;1.67;;;12.50;83.50;;;;;;5028519;28;20487;-74
2022/11/04 03:46:42;;;;;;;4.87;1.73;;;12.50;83.50;;;;;;5028597;28;20500;-74
2022/11/04 03:49:11;;;;;;;6.23;1.40;;;12.50;83.60;;;;;;5024916;28;20456;-74
2022/11/04 03:51:40;;;;;;;8.27;1.50;;;12.50;83.50;;;;;;5019509;28;20456;-73
2022/11/04 03:54:08;;;;;;;4.30;1.43;;;12.50;83.40;;;;;;5040540;28;20491;-72
2022/11/04 03:57:03;;;;;;;4.00;1.70;;;12.50;83.40;;;;;;5025542;28;20453;-74
2022/11/04 03:59:53;;;;;;;5.30;2.10;;;12.50;83.40;;;;;;5023115;28;20501;-73
2022/11/04 04:02:30;;;;;;;3.60;1.20;;;12.50;83.40;;;;;;5028470;28;20455;-73
2022/11/04 04:05:01;;;;;;;3.53;1.37;;;12.40;83.40;;;;;;5028022;28;20514;-75
2022/11/04 04:07:35;;;;;;;4.00;1.30;;;12.40;83.30;;;;;;5022623;28;20996;-74
2022/11/04 04:12:59;;;;;;;3.67;1.37;;;12.40;83.40;;;;;;5025871;28;20464;-73
2022/11/04 04:15:31;;;;;;;3.83;1.57;;;12.40;83.30;;;;;;5029480;28;20826;-75
2022/11/04 04:18:05;;;;;;;4.30;1.50;;;12.40;83.10;;;;;;5028176;28;21190;-74
2022/11/04 04:20:36;;;;;;;4.50;1.60;;;12.40;83.00;;;;;;5025088;28;20528;-74
2022/11/04 04:27:29;;;;;;;5.87;1.83;;;12.40;83.00;;;;;;5029885;28;20464;-72
2022/11/04 04:28:47;;;;;;;3.13;1.23;;;12.30;82.90;;;;;;5026506;28;20454;-73
2022/11/04 04:31:48;;;;;;;7.70;1.60;;;12.30;82.90;;;;;;5027654;28;20463;-74
2022/11/04 04:34:07;;;;;;;3.60;1.40;;;12.30;82.90;;;;;;5026975;28;20482;-73
2022/11/04 04:36:43;;;;;;;6.43;1.70;;;12.30;83.10;;;;;;5026074;28;21356;-74
2022/11/04 04:47:35;;;;;;;4.37;2.00;;;12.20;83.10;;;;;;5026162;28;20509;-74
2022/11/04 04:50:05;;;;;;;6.03;2.00;;;12.20;83.20;;;;;;5029957;28;20517;-73
2022/11/04 04:52:37;;;;;;;3.80;1.60;;;12.20;83.10;;;;;;5022285;28;20467;-73
2022/11/04 04:55:06;;;;;;;5.00;2.00;;;12.20;83.20;;;;;;5028306;28;20476;-74
2022/11/04 04:57:34;;;;;;;6.93;2.50;;;12.20;83.20;;;;;;5027101;28;20459;-74
2022/11/04 05:00:03;;;;;;;6.10;2.03;;;12.30;83.10;;;;;;5026683;28;21312;-73
2022/11/04 05:02:31;;;;;;;5.50;2.37;;;12.30;82.90;;;;;;5021133;28;20782;-73
2022/11/04 05:05:00;;;;;;;5.03;1.87;;;12.20;82.80;;;;;;5024182;28;21296;-72
2022/11/04 05:07:29;;;;;;;6.30;2.07;;;12.20;82.90;;;;;;5029070;28;20459;-73
2022/11/04 05:09:57;;;;;;;5.00;1.83;;;12.20;82.90;;;;;;5025912;28;20997;-75
2022/11/04 05:12:25;;;;;;;6.40;1.77;;;12.20;82.60;;;;;;5024630;28;20465;-73
2022/11/04 05:14:53;;;;;;;5.20;2.20;;;12.20;82.60;;;;;;5030003;28;20560;-73
2022/11/04 05:17:21;;;;;;;6.70;2.00;;;12.10;82.90;;;;;;5027586;28;20864;-74
2022/11/04 05:19:49;;;;;;;4.20;1.60;;;12.10;82.70;;;;;;5021416;28;20606;-74
2022/11/04 05:22:17;;;;;;;4.50;1.90;;;12.10;82.80;;;;;;5036047;28;20466;-74
2022/11/04 05:24:46;;;;;;;14.63;2.13;;;12.10;82.80;;;;;;5026168;28;20471;-74
2022/11/04 05:27:14;;;;;;;10.63;2.10;;;12.10;82.70;;;;;;5027759;28;20601;-74
2022/11/04 05:29:42;;;;;;;4.83;1.90;;;12.10;82.80;;;;;;5029550;28;20506;-74
2022/11/04 05:32:10;;;;;;;8.40;2.20;;;12.10;82.80;;;;;;5028253;28;20514;-74
2022/11/04 05:34:38;;;;;;;6.20;2.10;;;12.10;82.70;;;;;;5025390;28;20488;-73
2022/11/04 05:37:06;;;;;;;5.30;1.80;;;12.10;82.70;;;;;;5027534;28;20449;-73
2022/11/04 05:39:34;;;;;;;5.83;1.90;;;12.10;82.70;;;;;;5027460;28;20549;-72
2022/11/04 05:42:03;;;;;;;5.17;2.00;;;12.10;82.60;;;;;;5027796;28;20483;-73
2022/11/04 05:44:31;;;;;;;5.63;1.90;;;12.10;82.50;;;;;;5021699;28;20495;-75
2022/11/04 05:46:59;;;;;;;4.70;1.83;;;12.10;82.40;;;;;;5024453;28;20452;-74
2022/11/04 05:49:27;;;;;;;5.80;2.03;;;12.10;82.40;;;;;;5029536;28;20483;-75
2022/11/04 05:51:55;;;;;;;7.87;2.20;;;12.10;82.30;;;;;;5026052;28;20501;-73
2022/11/04 05:54:23;;;;;;;5.10;2.00;;;12.00;82.30;;;;;;5023159;28;20533;-73
2022/11/04 05:56:51;;;;;;;5.27;2.23;;;12.00;82.30;;;;;;5025770;28;20452;-74
2022/11/04 05:59:20;;;;;;;8.67;2.27;;;12.00;82.40;;;;;;5026764;28;20472;-74
2022/11/04 06:01:49;;;;;;;4.17;1.97;;;12.00;82.30;;;;;;5027231;28;20455;-75
2022/11/04 06:04:19;;;;;;;5.40;2.03;;;12.00;82.30;;;;;;5026614;28;21110;-75
2022/11/04 06:06:47;;;;;;;5.50;2.00;;;12.00;82.30;;;;;;5018295;28;20873;-74
2022/11/04 06:09:14;;;;;;;4.83;2.00;;;12.00;82.30;;;;;;5029089;28;20557;-75
2022/11/04 06:11:44;;;;;;;6.23;2.47;;;12.00;82.20;;;;;;5028083;28;20496;-75
2022/11/04 06:14:12;;;;;;;4.83;2.00;;;12.00;82.20;;;;;;5024950;28;20479;-74
2022/11/04 06:16:47;;;;;;;4.27;1.80;;;12.00;82.20;;;;;;5031473;28;20499;-75
2022/11/04 06:19:14;;;;;;;3.53;1.53;;;12.00;82.10;;;;;;5024808;28;20459;-75
2022/11/04 06:21:43;;;;;;;15.53;2.37;;;12.00;82.00;;;;;;5022911;28;20486;-75
2022/11/04 06:24:11;;;;;;;6.87;1.93;;;12.00;82.00;;;;;;5025135;28;20532;-75
2022/11/04 06:26:39;;;;;;;6.13;2.00;;;12.00;82.00;;;;;;5021454;28;21095;-75
2022/11/04 06:29:08;;;;;;;4.33;2.23;;;12.00;82.00;;;;;;5025555;28;20858;-75
2022/11/04 06:31:36;;;;;;;7.03;2.00;;;12.00;81.90;;;;;;5024304;28;20488;-74
2022/11/04 06:34:05;;;;;;;4.30;1.73;;;12.00;81.90;;;;;;5019683;28;20502;-75
2022/11/04 06:36:36;;;;;;;4.40;1.80;;;12.00;81.90;;;;;;5024559;28;20479;-76
2022/11/04 06:39:05;;;;;;;9.20;2.00;;;11.90;81.90;;;;;;5021610;28;20475;-75
2022/11/04 06:41:32;;;;;;;5.17;2.20;;;12.00;81.80;;;;;;5025847;28;20490;-75
2022/11/04 06:44:01;;;;;;;7.30;2.37;;;11.90;81.70;;;;;;5031601;28;21090;-75
2022/11/04 06:46:34;;;;;;;6.80;2.30;;;11.90;81.60;;;;;;5024712;28;20501;-75
2022/11/04 06:49:02;;;;;;;6.10;2.10;;;11.90;81.60;;;;;;5023528;28;20461;-76
2022/11/04 06:51:32;;;;;;;5.80;2.03;;;11.80;81.60;;;;;;5031739;28;20463;-76
2022/11/04 06:54:00;;;;;;;8.97;1.80;;;11.80;81.70;;;;;;5031175;28;20468;-74
2022/11/04 06:56:28;;;;;;;7.43;2.57;;;11.80;81.70;;;;;;5039935;28;20451;-74
2022/11/04 06:58:56;;;;;;;5.70;1.73;;;11.90;81.70;;;;;;5035042;28;20458;-74
2022/11/04 07:01:27;;;;;;;4.97;1.83;;;11.90;81.70;;;;;;5042077;28;20526;-75
2022/11/04 07:03:57;;;;;;;5.53;2.23;;;11.90;81.70;;;;;;5033554;28;21013;-75
2022/11/04 07:06:25;;;;;;;7.90;2.10;;;11.90;81.60;;;;;;5034225;28;20471;-75
2022/11/04 07:08:57;;;;;;;6.77;1.93;;;11.90;81.60;;;;;;5030619;28;21003;-75
2022/11/04 07:11:26;;;;;;;7.53;2.80;;;11.90;81.60;;;;;;5034815;28;20456;-75
2022/11/04 07:13:54;;;;;;;9.47;4.73;;;11.90;81.40;;;;;;5031033;28;20450;-75
2022/11/04 07:16:22;;;;;;;12.17;4.50;;;11.90;81.40;;;;;;5026677;28;20941;-74
2022/11/04 07:18:50;;;;;;;9.33;4.40;;;11.80;81.20;;;;;;5028757;28;20468;-74
2022/11/04 07:21:18;;;;;;;11.67;4.00;;;11.80;81.20;;;;;;5048967;28;20483;-74
2022/11/04 07:23:46;;;;;;;8.67;4.03;;;11.70;81.30;;;;;;5026474;28;20463;-75
2022/11/04 07:26:16;;;;;;;10.37;4.60;;;11.70;81.40;;;;;;5030887;28;20564;-74
2022/11/04 07:28:44;;;;;;;8.47;4.20;;;11.70;81.30;;;;;;5030002;28;20463;-74
2022/11/04 07:31:13;;;;;;;8.63;3.63;;;11.70;81.20;;;;;;5027792;28;20507;-75
2022/11/04 07:33:41;;;;;;;11.07;3.93;;;11.70;81.30;;;;;;5028648;28;20459;-74
2022/11/04 07:36:12;;;;;;;8.40;2.40;;;11.70;81.40;;;;;;5030157;28;20944;-75
2022/11/04 07:38:40;;;;;;;7.57;2.10;;;11.70;81.40;;;;;;5029173;28;20940;-76
2022/11/04 07:41:08;;;;;;;7.80;2.03;;;11.70;81.40;;;;;;5035125;28;20498;-76
2022/11/04 07:43:37;;;;;;;7.40;2.80;;;11.80;81.40;;;;;;5029374;28;20478;-76
2022/11/04 07:46:07;;;;;;;7.40;2.27;;;11.80;81.40;;;;;;5026251;28;20854;-74
2022/11/04 07:48:36;;;;;;;8.10;2.13;;;11.80;81.40;;;;;;5028162;28;20499;-74
2022/11/04 07:51:06;;;;;;;6.83;1.90;;;11.80;81.40;;;;;;5027996;28;20518;-74
2022/11/04 07:53:34;;;;;;;5.40;1.73;;;11.90;81.30;;;;;;5030117;28;20510;-75
2022/11/04 07:56:04;;;;;;;4.80;1.73;;;11.90;81.30;;;;;;5029000;28;21070;-74
2022/11/04 07:58:32;;;;;;;5.87;1.93;;;11.90;81.20;;;;;;5029260;28;20487;-76
2022/11/04 08:01:04;;;;;;;5.30;1.80;;;11.90;81.30;;;;;;5028646;28;20530;-76
2022/11/04 08:03:32;;;;;;;4.70;2.17;;;11.90;81.30;;;;;;5026893;28;21051;-76
2022/11/04 08:06:02;;;;;;;8.80;2.53;;;11.90;81.20;;;;;;5025833;28;20514;-74
2022/11/04 08:08:30;;;;;;;7.90;1.60;;;12.00;81.20;;;;;;5027604;28;20452;-75
2022/11/04 08:11:00;;;;;;;6.90;1.80;;;12.00;81.20;;;;;;5021357;28;20949;-75
2022/11/04 08:13:29;;;;;;;6.83;2.30;;;12.00;81.20;;;;;;5027325;28;20460;-75
2022/11/04 08:15:57;;;;;;;8.10;2.53;;;12.00;81.20;;;;;;5026046;28;20988;-75
2022/11/04 08:18:26;;;;;;;5.67;2.00;;;12.00;81.20;;;;;;5025338;28;20530;-75
2022/11/04 08:20:55;;;;;;;11.53;1.87;;;12.00;81.20;;;;;;5027565;28;20919;-75
2022/11/04 08:23:23;;;;;;;5.50;1.83;;;12.00;81.20;;;;;;5029311;28;21081;-75
2022/11/04 08:25:51;;;;;;;5.17;1.63;;;12.00;81.20;;;;;;5025259;28;20472;-75
2022/11/04 08:28:19;;;;;;;4.90;1.50;;;12.00;81.20;;;;;;5031248;28;20471;-75
2022/11/04 08:30:58;;;;;;;6.73;1.77;;;12.00;81.20;;;;;;5029742;28;20463;-75
2022/11/04 08:33:28;;;;;;;6.83;1.60;;;12.00;81.30;;;;;;5026194;28;20483;-75
2022/11/04 08:36:00;;;;;;;8.03;2.00;;;12.10;81.30;;;;;;5025962;28;20490;-74
2022/11/04 08:38:28;;;;;;;8.50;2.47;;;12.10;81.30;;;;;;5027655;28;20980;-73
2022/11/04 08:40:57;;;;;;;9.10;1.80;;;12.10;81.30;;;;;;5028011;28;20448;-73
2022/11/04 08:43:27;;;;;;;7.93;1.50;;;12.20;81.10;;;;;;5029872;28;20529;-73
2022/11/04 08:45:55;;;;;;;6.37;1.70;;;12.20;81.10;;;;;;5024673;28;20943;-73
2022/11/04 08:48:23;;;;;;;9.00;1.87;;;12.20;81.10;;;;;;5026704;28;20930;-73
2022/11/04 08:50:55;;;;;;;6.73;2.00;;;12.20;81.10;;;;;;5022491;28;20555;-74
2022/11/04 08:53:23;;;;;;;6.67;1.57;;;12.30;81.00;;;;;;5027975;28;20530;-74
2022/11/04 08:55:51;;;;;;;4.83;1.50;;;12.30;81.00;;;;;;5026122;28;20537;-74
2022/11/04 08:58:19;;;;;;;8.50;1.80;;;12.30;81.00;;;;;;5027378;28;20483;-73
2022/11/04 09:00:48;;;;;;;5.83;1.50;;;12.30;81.00;;;;;;5033437;28;20464;-73
2022/11/04 09:03:16;;;;;;;6.93;1.73;;;12.30;81.00;;;;;;5028339;28;20480;-75
2022/11/04 09:05:47;;;;;;;7.47;1.50;;;12.30;81.00;;;;;;5026421;28;20590;-72
2022/11/04 09:08:18;;;;;;;7.20;1.40;;;12.30;80.90;;;;;;5024441;28;20464;-73
2022/11/04 09:10:47;;;;;;;10.67;2.07;;;12.30;80.80;;;;;;5029765;28;20447;-73
2022/11/04 09:13:16;;;;;;;4.10;1.40;;;12.40;80.90;;;;;;5026723;28;20864;-74
2022/11/04 09:15:44;;;;;;;4.87;1.20;;;12.40;80.80;;;;;;5026664;28;20475;-73
2022/11/04 09:18:12;;;;;;;6.97;1.60;;;12.40;80.80;;;;;;5031530;28;20521;-73
2022/11/04 09:20:40;;;;;;;7.90;1.40;;;12.40;80.80;;;;;;5026062;28;20953;-74
2022/11/04 09:23:09;;;;;;;4.23;1.47;;;12.40;80.70;;;;;;5026164;28;20582;-74
2022/11/04 09:25:39;;;;;;;8.73;2.17;;;12.40;80.80;;;;;;5025379;28;20494;-74
2022/11/04 09:28:07;;;;;;;8.77;2.20;;;12.40;80.80;;;;;;5025124;28;20993;-74
2022/11/04 09:30:36;;;;;;;7.03;1.73;;;12.50;80.80;;;;;;5024452;28;20460;-73
2022/11/04 09:33:04;;;;;;;7.80;1.67;;;12.50;80.80;;;;;;5022968;28;20441;-73
2022/11/04 09:35:32;;;;;;;4.40;1.60;;;12.50;80.70;;;;;;5018573;28;21063;-74
2022/11/04 09:38:00;;;;;;;8.73;1.50;;;12.50;80.70;;;;;;5027391;28;20453;-74
2022/11/04 09:40:29;;;;;;;8.13;1.47;;;12.50;80.70;;;;;;5031203;28;20468;-73
2022/11/04 09:43:14;;;;;;;4.90;1.53;;;12.50;80.70;;;;;;5024944;28;20499;-73
2022/11/04 09:45:43;;;;;;;7.97;1.43;;;12.60;80.60;;;;;;5029380;28;20462;-74
2022/11/04 09:48:19;;;;;;;5.80;1.60;;;12.60;80.60;;;;;;5028474;28;20452;-74
2022/11/04 09:50:51;;;;;;;6.50;1.50;;;12.60;80.60;;;;;;5025129;28;20510;-73
2022/11/04 09:53:24;;;;;;;6.40;1.27;;;12.70;80.40;;;;;;5029016;28;21184;-73
2022/11/04 09:55:57;;;;;;;4.97;1.50;;;12.70;80.30;;;;;;5030417;28;20479;-73
2022/11/04 09:58:27;;;;;;;8.40;1.70;;;12.70;80.30;;;;;;5029072;28;20525;-75
2022/11/04 10:01:01;;;;;;;7.77;1.60;;;12.70;80.30;;;;;;5025625;28;20459;-75
2022/11/04 10:03:46;;;;;;;5.10;1.93;;;12.70;80.30;;;;;;5024213;28;20517;-74
2022/11/04 10:06:29;;;;;;;4.13;1.53;;;12.70;80.20;;;;;;5029504;28;20511;-73
2022/11/04 10:09:14;;;;;;;6.90;1.73;;;12.70;80.30;;;;;;5028015;28;20451;-73
2022/11/04 10:11:53;;;;;;;4.30;1.30;;;12.70;80.30;;;;;;5030926;28;20455;-73
2022/11/04 10:14:40;;;;;;;7.03;2.00;;;12.80;80.20;;;;;;5020894;28;20481;-74
2022/11/04 10:17:21;;;;;;;10.07;1.67;;;12.80;80.20;;;;;;5023698;28;20496;-73
2022/11/04 10:19:59;;;;;;;6.03;1.60;;;12.80;80.20;;;;;;5030236;28;20450;-74
2022/11/04 10:22:32;;;;;;;5.50;1.60;;;12.80;80.20;;;;;;5032366;28;20535;-73
2022/11/04 10:25:08;;;;;;;10.27;1.60;;;12.80;80.20;;;;;;5031127;28;20487;-74
2022/11/04 10:27:39;;;;;;;7.90;1.33;;;12.80;80.20;;;;;;5034491;28;20448;-73
2022/11/04 10:30:15;;;;;;;5.37;1.17;;;12.80;80.20;;;;;;5030927;28;20451;-74
2022/11/04 10:32:53;;;;;;;5.83;1.40;;;12.80;80.20;;;;;;5035693;28;20453;-75
2022/11/04 10:35:27;;;;;;;7.07;1.63;;;12.80;80.10;;;;;;5039407;28;20576;-74
2022/11/04 10:37:58;;;;;;;7.97;1.57;;;12.80;80.10;;;;;;5047978;28;20509;-74
2022/11/04 10:40:31;;;;;;;7.53;1.83;;;12.80;80.10;;;;;;5040341;28;21016;-74
2022/11/04 10:43:02;;;;;;;4.70;1.53;;;12.80;80.10;;;;;;5036092;28;20488;-72
2022/11/04 10:45:40;;;;;;;5.43;1.83;;;12.80;80.10;;;;;;5039639;28;20484;-73
2022/11/04 10:48:16;;;;;;;6.83;1.70;;;12.80;80.10;;;;;;5040886;28;20458;-74
2022/11/04 10:50:52;;;;;;;8.57;1.60;;;12.80;80.20;;;;;;5036785;28;20459;-74
2022/11/04 10:53:23;;;;;;;4.57;1.43;;;12.80;80.20;;;;;;5038256;28;20457;-74
2022/11/04 10:55:59;;;;;;;4.43;1.10;;;12.80;80.20;;;;;;5041710;28;20474;-74
2022/11/04 10:58:31;;;;;;;6.07;1.43;;;12.90;80.20;;;;;;5030928;28;20553;-74
2022/11/04 11:01:25;;;;;;;7.73;1.57;;;12.80;80.30;;;;;;5038379;28;20517;-74
2022/11/04 11:03:54;;;;;;;7.13;1.70;;;12.80;80.40;;;;;;5032186;28;20573;-74
2022/11/04 11:06:27;;;;;;;5.87;1.53;;;12.80;80.40;;;;;;5030825;28;20454;-75
2022/11/04 11:08:58;;;;;;;6.13;1.40;;;12.90;80.50;;;;;;5031968;28;21033;-75
2022/11/04 11:11:44;;;;;;;4.27;1.23;;;12.90;80.50;;;;;;5033237;28;20461;-75
2022/11/04 11:14:30;;;;;;;7.27;1.80;;;12.90;80.60;;;;;;5032267;28;20472;-75
2022/11/04 11:17:17;;;;;;;4.33;1.40;;;12.90;80.60;;;;;;5047408;28;20460;-75
2022/11/04 11:19:50;;;;;;;5.37;1.87;;;12.90;80.70;;;;;;5028415;28;20451;-74
2022/11/04 11:22:41;;;;;;;5.30;1.20;;;13.00;80.70;;;;;;5030518;28;20495;-75
2022/11/04 11:25:23;;;;;;;16.93;2.80;;;13.00;80.70;;;;;;5018260;28;20494;-75
2022/11/04 11:27:53;;;;;;;4.60;1.27;;;13.00;80.70;;;;;;5036257;28;20466;-73
2022/11/04 11:30:25;;;;;;;8.97;1.83;;;13.00;80.70;;;;;;5033693;28;20456;-75
2022/11/04 11:32:58;;;;;;;10.90;1.90;;;13.00;80.70;;;;;;5021334;28;20471;-70
2022/11/04 11:35:33;;;;;;;6.60;1.67;;;13.10;80.60;;;;;;5027613;28;20480;-70
2022/11/04 11:38:04;;;;;;;4.57;1.20;;;13.10;80.70;;;;;;5023752;28;22205;-71
2022/11/04 11:40:37;;;;;;;5.10;1.30;;;13.10;80.70;;;;;;5025530;28;20455;-72
2022/11/04 11:43:25;;;;;;;5.50;1.40;;;13.10;80.80;;;;;;5026062;28;20489;-71
2022/11/04 11:45:56;;;;;;;6.90;1.20;;;13.10;80.70;;;;;;5026904;28;20479;-74
2022/11/04 11:48:38;;;;;;;4.43;1.30;;;13.20;80.80;;;;;;5020862;28;20452;-74
2022/11/04 11:51:07;;;;;;;6.23;1.23;;;13.10;80.80;;;;;;5027005;28;20874;-74
2022/11/04 11:53:39;;;;;;;4.80;1.40;;;13.20;80.70;;;;;;5027890;28;20502;-73
2022/11/04 11:56:21;;;;;;;6.90;1.40;;;13.20;80.70;;;;;;5033728;28;20892;-72
2022/11/04 11:58:55;;;;;;;4.87;1.60;;;13.20;80.80;;;;;;5021563;28;20475;-72
2022/11/04 12:01:49;;;;;;;4.00;1.70;;;13.20;80.80;;;;;;5024624;28;20504;-71
2022/11/04 12:04:20;;;;;;;9.13;1.47;;;13.20;80.70;;;;;;5027663;28;20568;-71
2022/11/04 12:07:15;;;;;;;5.30;1.30;;;13.20;80.70;;;;;;5024928;28;20479;-71
2022/11/04 12:10:11;;;;;;;8.63;1.77;;;13.20;80.80;;;;;;5030691;28;20560;-70
2022/11/04 12:13:06;;;;;;;9.00;2.17;;;13.30;80.80;;;;;;5023897;28;20467;-71
2022/11/04 12:16:12;;;;;;;7.27;1.70;;;13.30;80.70;;;;;;5015571;28;20480;-71
2022/11/04 12:18:56;;;;;;;5.67;1.63;;;13.30;80.70;;;;;;5020229;28;20533;-69
2022/11/04 12:21:32;;;;;;;13.13;1.90;;;13.30;80.80;;;;;;5023905;28;20594;-71
2022/11/04 12:24:06;;;;;;;5.27;1.27;;;13.30;80.90;;;;;;5034148;28;20491;-68
2022/11/04 12:26:39;;;;;;;6.93;1.70;;;13.30;80.80;;;;;;5029506;28;20468;-68
2022/11/04 12:29:28;;;;;;;4.00;1.60;;;13.30;80.70;;;;;;5026174;28;20499;-74
2022/11/04 12:32:09;;;;;;;5.40;1.53;;;13.30;80.70;;;;;;5027178;28;20452;-69
2022/11/04 12:34:49;;;;;;;3.93;1.67;;;13.40;80.70;;;;;;5025702;28;20479;-68
2022/11/04 12:37:28;;;;;;;8.23;1.80;;;13.40;80.60;;;;;;5027707;28;20966;-71
2022/11/04 12:40:11;;;;;;;6.87;1.50;;;13.40;80.50;;;;;;5024724;28;20533;-69
2022/11/04 12:43:00;;;;;;;9.00;1.77;;;13.40;80.50;;;;;;5023765;28;20472;-69
2022/11/04 12:45:37;;;;;;;5.63;1.70;;;13.40;80.50;;;;;;5022781;28;20482;-68
2022/11/04 12:48:10;;;;;;;6.63;1.97;;;13.40;80.50;;;;;;5016694;28;20954;-67
2022/11/04 12:50:52;;;;;;;6.40;1.50;;;13.40;80.50;;;;;;5026319;28;20463;-69
2022/11/04 12:53:44;;;;;;;7.00;1.97;;;13.40;80.40;;;;;;5027103;28;20502;-70
2022/11/04 12:56:16;;;;;;;6.03;2.37;;;13.40;80.50;;;;;;5027064;28;20472;-67
2022/11/04 12:59:25;;;;;;;8.80;3.30;;;13.40;80.50;;;;;;5025713;28;20448;-68
2022/11/04 13:01:57;;;;;;;59.13;35.83;;;13.40;80.50;;;;;;5018690;28;20460;-68
2022/11/04 13:04:30;;;;;;;23.60;8.10;;;13.40;80.60;;;;;;5021788;28;20492;-67
2022/11/04 13:07:02;;;;;;;31.40;5.10;;;13.50;80.70;;;;;;5023704;28;20534;-68
2022/11/04 13:09:38;;;;;;;15.73;4.07;;;13.60;80.70;;;;;;5023513;28;20445;-69
2022/11/04 13:12:11;;;;;;;7.13;1.70;;;13.60;80.50;;;;;;5030813;28;20853;-67
2022/11/04 13:14:46;;;;;;;9.60;2.33;;;13.60;80.50;;;;;;5023854;28;20528;-69
2022/11/04 13:17:18;;;;;;;5.00;1.77;;;13.60;80.40;;;;;;5022630;28;20464;-69
2022/11/04 13:19:49;;;;;;;7.50;1.80;;;13.60;80.30;;;;;;5024356;28;21028;-74
2022/11/04 13:22:22;;;;;;;6.73;1.90;;;13.50;80.30;;;;;;5030827;28;20992;-73
2022/11/04 13:24:59;;;;;;;26.30;11.00;;;13.50;80.30;;;;;;5026947;28;20494;-74
2022/11/04 13:27:35;;;;;;;16.40;8.10;;;13.50;80.20;;;;;;5032006;28;20506;-69
2022/11/04 13:30:07;;;;;;;22.93;10.70;;;13.50;80.10;;;;;;5026861;28;20441;-68
2022/11/04 13:32:43;;;;;;;13.30;4.57;;;13.50;80.10;;;;;;5028837;28;21184;-68
2022/11/04 13:35:21;;;;;;;4.87;1.83;;;13.50;80.10;;;;;;5029769;28;20480;-68
2022/11/04 13:37:57;;;;;;;10.63;1.80;;;13.50;79.90;;;;;;5031165;28;20513;-68
2022/11/04 13:40:31;;;;;;;6.77;2.20;;;13.40;79.90;;;;;;5035124;28;20454;-68
2022/11/04 13:46:00;;;;;;;10.53;2.43;;;13.40;79.90;;;;;;5029442;28;20733;-68
2022/11/04 13:48:31;;;;;;;9.50;3.50;;;13.40;79.80;;;;;;5028395;28;20457;-67